Middletown, MD (21769)

9:14 PM EST on November 21, 2014 (GMT -0500)
Orionis Observatory | Change Station
CLOSE
Current Station
Personal Weather Station
Location: Middletown, MD
Elevation: 702 ft
Nearby Weather Stations

Elev 702 ft 39.45 °N, 77.52 °W | Updated 7 seconds ago

Clear
Clear
24.2 °F
Feels Like 24 °F
N
0.0
Wind Variable Wind from North
Gusts 0.0 mph

Today
High -- | Low -- °F
--% Chance of Precip.
Yesterday
High -- | Low -- °F
Precip. -- in
7:00 AM 4:51 PM
Waning Crescent, 0% visible
Pressure 30.57 in
Visibility 10.0 miles
Clouds Clear
Windchill 24 °F
Dew Point 11 °F
Humidity 56%
Rainfall 0.00 in
Snow Depth Not available.
UV 0 out of 12
Pollen .10 out of 12
Air Quality Not available.
Flu Activity Not available.
METAR KFDK 220155Z AUTO 00000KT 10SM CLR M03/M08 A3057 RMK AO2

More Conditions Fewer Conditions

Pressure 30.57 in
Visibility 10.0 miles
Clouds Clear
Windchill 24 °F
Dew Point 11 °F
Humidity 56%
Rainfall 0.00 in
Snow Depth Not available.
UV 0 out of 12
Pollen .10 out of 12
Air Quality Not available.
Flu Activity Not available.
METAR KFDK 220155Z AUTO 00000KT 10SM CLR M03/M08 A3057 RMK AO2

More Conditions Fewer Conditions

10-Day Weather Forecast

Almanac

Astronomy

Nov. 21, 2014 Rise Set
Actual Time
Civil Twilight
Nautical Twilight
Astronomical Twilight
Moon
Length of Visible Light
Length of Day
Tomorrow will be .
, % of the Moon is Illuminated

Today's Extremes

State Highs State Lows

Community

WunderPhotos

Upload Photos

1,772,759 photos uploaded!

WunderBlogs® & News

Nearby

Air Quality

  Air Quality AQ Index Pollutant
Not available.

Snow Depth

Station Depth Elevation

Earthquake Activity

City Distance Mag. Time & Date
Minimum magnitude displayed is 2.5.

Coastal Water Temperatures

Place Temperature

Nearby Weather Stations